Contact Us:
Email: info@sawbill.com
Phone: (218)663-7150
Fax: (218)663-7980
Mail: 4620 Sawbill Trail
Box 2129
Tofte, MN 55615


Powered by
Movable Type 3.15
 
Sawbill Weather History Archives: May 2005
Current Sawbill Weather History | « April 2005 | June 2005 »


Date

High
Temperature

Low
Temperature

Barometric
Pressure

Relative
Humidity 7AM

9 AM
Temperature

Moisture

Snow

5/31/05 79 47 30.14 64% 53 0
5/30/05 77 45 30.20 85% 48 0
5/29/05 65 47 30.10 87% 55 .03"
5/28/05 67 36 29.92 89% 47 .25"
5/27/05 60 36 29.80 81% 39 0
5/26/05 61 47 29.79 79% 48 Trace
5/25/05 61 46 29.60 89% 46 .48"
5/24/05 77 47 30.05 78% 53 0
5/23/05 70 46 30.07 88% 47 0
5/22/05 59 49 29.84 87% 49 .22"
5/21/05 70 45 29.60 87% 49 .35"
5/18/05 61 45 29.86 88% 50 .36"
5/16/05 57 35 30.05 53% 40 0
5/15/05 51 35 30.06 74% 41 .02" Trace
5/14/05 46 35 29.92 83% 35 .27"
5/13/05 42 32 29.71 85% 40 .07" Trace
5/12/05 51 27 29.98 82% 35 .26"
5/11/05 51 27 30.50 62% 31 Trace Trace
5/10/05 59 34 30.28 34% 35 Trace
5/9/05 64 54 29.61 92% 55 .67"
5/8/05 70 47 29.79 90% 55 .32"
5/7/05 64 43 29.85 86% 47 1.52"
5/6/05 72 37 30.12 85% 43 0
5/5/05 68 38 29.98 87% 46 1.29"
5/4/05 67 31 29.80 56% 38 0
5/3/05 55 25 30.12 64% 31 0
5/2/05 44 27 29.75 75% 27 Trace Trace
5/1/05 45 28 29.92 69% 30 .17" 1"
 


Home I Trip Planning I Rentals and Outfitting I Reservations I Campgrounds I Sawbill Store I Sawbill News I Contact

© 1997 - 2017, Sawbill Canoe Outfitters, Inc. I Privacy Policy